Weather at Ottawa / Hull (Expressair) Heliport [CLOSED]

Public forecast

Using degrees Celsius for public forecast. Weather courtesy of forecast.io.

Closest aviation weather report (METAR) to Ottawa / Hull (Expressair) Heliport

Closest report is Ottawa / Gatineau Airport, 8.1 nm (15.0 km) ENE. Retrieved 2021/01/16 22:23 UTC (0 seconds ago):

CYND 162223Z 27002KT 2 1/2SM -SN BKN004 BKN013 OVC030 00/M00 A2934 RMK SN2SF4SC1SC1 SLP938

Closest aviation forecast (TAF) to Ottawa / Hull (Expressair) Heliport

Closest forecast is Ottawa / Gatineau Airport, 8.1 nm (15.0 km) ENE. Retrieved 2021/01/16 18:00 UTC (4 hours ago):

TAF CYND 161739Z 1618/1702 08012KT 1SM -SN OVC003 TEMPO 1618/1621 21/2SM -SN OVC008 PROB40 1618/1621 3/4SM -SN FM162100 VRB03KT 11/2SM -SN OVC006 TEMPO 1621/1624 3SM -SN OVC010 BECMG 1621/1623 30005KT FM170000 30005KT 11/2SM -SN OVC008 TEMPO 1700/1702 3SM -SN OVC012 RMK NXT FCST BY 170000Z